sensor_id;sensor_type;location;lat;lon;timestamp;P1;durP1;ratioP1;P2;durP2;ratioP2
59302;SDS011;45074;52.764;6.896;2022-11-06T00:00:35;13.77;;;7.63;;
59302;SDS011;45074;52.764;6.896;2022-11-06T00:03:01;13.35;;;7.03;;
59302;SDS011;45074;52.764;6.896;2022-11-06T00:05:28;11.77;;;7.50;;
59302;SDS011;45074;52.764;6.896;2022-11-06T00:08:13;11.52;;;7.43;;
59302;SDS011;45074;52.764;6.896;2022-11-06T00:10:39;11.48;;;7.40;;
59302;SDS011;45074;52.764;6.896;2022-11-06T00:13:05;12.60;;;7.82;;
59302;SDS011;45074;52.764;6.896;2022-11-06T00:15:32;12.98;;;7.47;;
59302;SDS011;45074;52.764;6.896;2022-11-06T00:17:58;11.75;;;7.35;;
59302;SDS011;45074;52.764;6.896;2022-11-06T00:20:24;12.32;;;7.75;;
59302;SDS011;45074;52.764;6.896;2022-11-06T00:22:50;12.20;;;7.30;;
59302;SDS011;45074;52.764;6.896;2022-11-06T00:25:16;11.63;;;7.15;;
59302;SDS011;45074;52.764;6.896;2022-11-06T00:27:42;13.98;;;7.82;;
59302;SDS011;45074;52.764;6.896;2022-11-06T00:30:08;12.38;;;7.32;;
59302;SDS011;45074;52.764;6.896;2022-11-06T00:32:36;12.23;;;7.28;;
59302;SDS011;45074;52.764;6.896;2022-11-06T00:35:02;14.05;;;7.72;;
59302;SDS011;45074;52.764;6.896;2022-11-06T00:37:28;12.32;;;7.45;;
59302;SDS011;45074;52.764;6.896;2022-11-06T00:39:54;13.23;;;7.15;;
59302;SDS011;45074;52.764;6.896;2022-11-06T00:42:20;15.13;;;7.60;;
59302;SDS011;45074;52.764;6.896;2022-11-06T00:44:46;12.75;;;7.47;;
59302;SDS011;45074;52.764;6.896;2022-11-06T00:47:13;12.38;;;7.18;;
59302;SDS011;45074;52.764;6.896;2022-11-06T00:49:39;11.60;;;6.72;;
59302;SDS011;45074;52.764;6.896;2022-11-06T00:52:05;13.35;;;7.03;;
59302;SDS011;45074;52.764;6.896;2022-11-06T00:54:31;13.52;;;6.85;;
59302;SDS011;45074;52.764;6.896;2022-11-06T00:56:57;12.32;;;7.30;;
59302;SDS011;45074;52.764;6.896;2022-11-06T00:59:23;11.65;;;7.63;;
59302;SDS011;45074;52.764;6.896;2022-11-06T01:01:49;12.88;;;7.60;;
59302;SDS011;45074;52.764;6.896;2022-11-06T01:04:16;14.30;;;7.15;;
59302;SDS011;45074;52.764;6.896;2022-11-06T01:06:46;11.80;;;7.05;;
59302;SDS011;45074;52.764;6.896;2022-11-06T01:09:14;11.50;;;7.18;;
59302;SDS011;45074;52.764;6.896;2022-11-06T01:11:43;12.02;;;7.10;;
59302;SDS011;45074;52.764;6.896;2022-11-06T01:14:12;13.43;;;6.80;;
59302;SDS011;45074;52.764;6.896;2022-11-06T01:16:39;14.35;;;6.75;;
59302;SDS011;45074;52.764;6.896;2022-11-06T01:19:05;11.73;;;7.20;;
59302;SDS011;45074;52.764;6.896;2022-11-06T01:21:33;13.95;;;7.40;;
59302;SDS011;45074;52.764;6.896;2022-11-06T01:24:01;12.27;;;7.00;;
59302;SDS011;45074;52.764;6.896;2022-11-06T01:26:29;14.70;;;7.13;;
59302;SDS011;45074;52.764;6.896;2022-11-06T01:28:56;13.77;;;7.13;;
59302;SDS011;45074;52.764;6.896;2022-11-06T01:31:23;12.63;;;6.65;;
59302;SDS011;45074;52.764;6.896;2022-11-06T01:33:51;13.07;;;7.22;;
59302;SDS011;45074;52.764;6.896;2022-11-06T01:36:17;11.73;;;6.70;;
59302;SDS011;45074;52.764;6.896;2022-11-06T01:38:45;12.75;;;6.70;;
59302;SDS011;45074;52.764;6.896;2022-11-06T01:41:13;11.77;;;6.88;;
59302;SDS011;45074;52.764;6.896;2022-11-06T01:43:45;12.23;;;6.68;;
59302;SDS011;45074;52.764;6.896;2022-11-06T01:46:14;15.35;;;7.28;;
59302;SDS011;45074;52.764;6.896;2022-11-06T01:48:41;10.68;;;6.75;;
59302;SDS011;45074;52.764;6.896;2022-11-06T01:51:09;13.10;;;7.07;;
59302;SDS011;45074;52.764;6.896;2022-11-06T01:53:35;12.05;;;6.65;;
59302;SDS011;45074;52.764;6.896;2022-11-06T01:56:03;11.60;;;6.80;;
59302;SDS011;45074;52.764;6.896;2022-11-06T01:58:31;11.43;;;7.30;;
59302;SDS011;45074;52.764;6.896;2022-11-06T02:00:58;12.20;;;7.00;;
59302;SDS011;45074;52.764;6.896;2022-11-06T02:03:25;12.25;;;6.95;;
59302;SDS011;45074;52.764;6.896;2022-11-06T02:05:52;12.60;;;6.80;;
59302;SDS011;45074;52.764;6.896;2022-11-06T02:08:18;15.20;;;6.88;;
59302;SDS011;45074;52.764;6.896;2022-11-06T02:10:46;13.85;;;6.63;;
59302;SDS011;45074;52.764;6.896;2022-11-06T02:13:17;11.52;;;6.63;;
59302;SDS011;45074;52.764;6.896;2022-11-06T02:16:13;12.43;;;6.50;;
59302;SDS011;45074;52.764;6.896;2022-11-06T02:19:09;13.35;;;6.50;;
59302;SDS011;45074;52.764;6.896;2022-11-06T02:22:03;13.03;;;6.73;;
59302;SDS011;45074;52.764;6.896;2022-11-06T02:27:18;12.73;;;6.85;;
59302;SDS011;45074;52.764;6.896;2022-11-06T02:32:16;11.10;;;6.40;;
59302;SDS011;45074;52.764;6.896;2022-11-06T02:34:52;11.73;;;6.65;;
59302;SDS011;45074;52.764;6.896;2022-11-06T02:37:22;13.40;;;6.85;;
59302;SDS011;45074;52.764;6.896;2022-11-06T02:39:52;12.43;;;7.07;;
59302;SDS011;45074;52.764;6.896;2022-11-06T02:42:21;13.23;;;6.93;;
59302;SDS011;45074;52.764;6.896;2022-11-06T02:44:50;13.68;;;6.70;;
59302;SDS011;45074;52.764;6.896;2022-11-06T02:47:20;11.75;;;7.07;;
59302;SDS011;45074;52.764;6.896;2022-11-06T02:49:50;11.95;;;6.55;;
59302;SDS011;45074;52.764;6.896;2022-11-06T02:52:21;10.60;;;6.07;;
59302;SDS011;45074;52.764;6.896;2022-11-06T02:55:03;12.60;;;6.72;;
59302;SDS011;45074;52.764;6.896;2022-11-06T02:57:39;13.05;;;6.50;;
59302;SDS011;45074;52.764;6.896;2022-11-06T03:00:10;12.98;;;6.93;;
59302;SDS011;45074;52.764;6.896;2022-11-06T03:02:40;10.88;;;6.05;;
59302;SDS011;45074;52.764;6.896;2022-11-06T03:10:43;11.10;;;5.90;;
59302;SDS011;45074;52.764;6.896;2022-11-06T03:13:19;11.20;;;6.03;;
59302;SDS011;45074;52.764;6.896;2022-11-06T03:18:15;11.43;;;5.63;;
59302;SDS011;45074;52.764;6.896;2022-11-06T03:20:55;10.75;;;6.03;;
59302;SDS011;45074;52.764;6.896;2022-11-06T03:24:07;11.60;;;5.82;;
59302;SDS011;45074;52.764;6.896;2022-11-06T03:26:37;11.07;;;5.78;;
59302;SDS011;45074;52.764;6.896;2022-11-06T03:31:40;10.52;;;5.90;;
59302;SDS011;45074;52.764;6.896;2022-11-06T03:34:18;10.05;;;5.53;;
59302;SDS011;45074;52.764;6.896;2022-11-06T03:37:26;11.85;;;5.50;;
59302;SDS011;45074;52.764;6.896;2022-11-06T03:40:07;12.05;;;5.30;;
59302;SDS011;45074;52.764;6.896;2022-11-06T03:42:35;11.32;;;5.50;;
59302;SDS011;45074;52.764;6.896;2022-11-06T03:45:08;11.63;;;5.55;;
59302;SDS011;45074;52.764;6.896;2022-11-06T03:47:39;11.85;;;5.10;;
59302;SDS011;45074;52.764;6.896;2022-11-06T03:50:11;10.55;;;5.32;;
59302;SDS011;45074;52.764;6.896;2022-11-06T03:52:43;10.75;;;5.18;;
59302;SDS011;45074;52.764;6.896;2022-11-06T03:55:21;10.13;;;5.10;;
59302;SDS011;45074;52.764;6.896;2022-11-06T03:57:52;10.57;;;4.90;;
59302;SDS011;45074;52.764;6.896;2022-11-06T04:00:23;9.63;;;5.22;;
59302;SDS011;45074;52.764;6.896;2022-11-06T04:02:59;9.70;;;4.82;;
59302;SDS011;45074;52.764;6.896;2022-11-06T04:08:01;11.27;;;4.85;;
59302;SDS011;45074;52.764;6.896;2022-11-06T04:10:47;9.25;;;4.57;;
59302;SDS011;45074;52.764;6.896;2022-11-06T04:13:37;12.68;;;4.72;;
59302;SDS011;45074;52.764;6.896;2022-11-06T04:16:32;7.18;;;4.03;;
59302;SDS011;45074;52.764;6.896;2022-11-06T04:19:14;9.25;;;4.28;;
59302;SDS011;45074;52.764;6.896;2022-11-06T04:30:03;11.93;;;4.63;;
59302;SDS011;45074;52.764;6.896;2022-11-06T04:32:45;10.93;;;4.68;;
59302;SDS011;45074;52.764;6.896;2022-11-06T04:35:20;10.25;;;4.30;;
59302;SDS011;45074;52.764;6.896;2022-11-06T04:38:26;10.35;;;4.30;;
59302;SDS011;45074;52.764;6.896;2022-11-06T04:44:00;8.85;;;4.35;;
59302;SDS011;45074;52.764;6.896;2022-11-06T04:49:38;9.00;;;4.25;;
59302;SDS011;45074;52.764;6.896;2022-11-06T04:52:08;10.75;;;4.57;;
59302;SDS011;45074;52.764;6.896;2022-11-06T04:54:38;9.15;;;4.30;;
59302;SDS011;45074;52.764;6.896;2022-11-06T04:57:04;9.70;;;4.53;;
59302;SDS011;45074;52.764;6.896;2022-11-06T04:59:34;8.60;;;4.10;;
59302;SDS011;45074;52.764;6.896;2022-11-06T05:02:01;9.65;;;4.45;;
59302;SDS011;45074;52.764;6.896;2022-11-06T05:04:27;8.18;;;4.38;;
59302;SDS011;45074;52.764;6.896;2022-11-06T05:06:52;8.57;;;4.60;;
59302;SDS011;45074;52.764;6.896;2022-11-06T05:09:18;10.40;;;4.65;;
59302;SDS011;45074;52.764;6.896;2022-11-06T05:11:44;10.52;;;4.53;;
59302;SDS011;45074;52.764;6.896;2022-11-06T05:14:10;10.15;;;4.47;;
59302;SDS011;45074;52.764;6.896;2022-11-06T05:16:36;12.57;;;4.55;;
59302;SDS011;45074;52.764;6.896;2022-11-06T05:19:03;12.60;;;4.65;;
59302;SDS011;45074;52.764;6.896;2022-11-06T05:21:29;10.50;;;4.15;;
59302;SDS011;45074;52.764;6.896;2022-11-06T05:24:13;10.93;;;4.68;;
59302;SDS011;45074;52.764;6.896;2022-11-06T05:26:39;11.48;;;4.55;;
59302;SDS011;45074;52.764;6.896;2022-11-06T05:29:06;8.80;;;3.78;;
59302;SDS011;45074;52.764;6.896;2022-11-06T05:31:32;11.05;;;4.00;;
59302;SDS011;45074;52.764;6.896;2022-11-06T05:33:58;7.45;;;3.90;;
59302;SDS011;45074;52.764;6.896;2022-11-06T05:36:24;11.52;;;3.83;;
59302;SDS011;45074;52.764;6.896;2022-11-06T05:38:50;9.50;;;3.97;;
59302;SDS011;45074;52.764;6.896;2022-11-06T05:41:16;11.68;;;3.92;;
59302;SDS011;45074;52.764;6.896;2022-11-06T05:43:42;7.90;;;3.70;;
59302;SDS011;45074;52.764;6.896;2022-11-06T05:46:08;8.95;;;3.65;;
59302;SDS011;45074;52.764;6.896;2022-11-06T05:48:34;12.48;;;4.18;;
59302;SDS011;45074;52.764;6.896;2022-11-06T05:51:00;10.07;;;3.78;;
59302;SDS011;45074;52.764;6.896;2022-11-06T05:53:28;7.72;;;3.53;;
59302;SDS011;45074;52.764;6.896;2022-11-06T05:55:55;8.88;;;3.50;;
59302;SDS011;45074;52.764;6.896;2022-11-06T05:58:21;10.70;;;3.90;;
59302;SDS011;45074;52.764;6.896;2022-11-06T06:00:47;8.82;;;3.50;;
59302;SDS011;45074;52.764;6.896;2022-11-06T06:03:13;7.68;;;3.30;;
59302;SDS011;45074;52.764;6.896;2022-11-06T06:05:39;8.85;;;3.67;;
59302;SDS011;45074;52.764;6.896;2022-11-06T06:08:05;8.85;;;3.28;;
59302;SDS011;45074;52.764;6.896;2022-11-06T06:10:31;8.65;;;3.50;;
59302;SDS011;45074;52.764;6.896;2022-11-06T06:12:58;9.80;;;3.83;;
59302;SDS011;45074;52.764;6.896;2022-11-06T06:15:24;8.35;;;3.55;;
59302;SDS011;45074;52.764;6.896;2022-11-06T06:17:50;8.85;;;3.55;;
59302;SDS011;45074;52.764;6.896;2022-11-06T06:20:16;11.77;;;3.38;;
59302;SDS011;45074;52.764;6.896;2022-11-06T06:22:42;5.97;;;3.33;;
59302;SDS011;45074;52.764;6.896;2022-11-06T06:25:08;10.65;;;3.22;;
59302;SDS011;45074;52.764;6.896;2022-11-06T06:27:34;11.15;;;3.40;;
59302;SDS011;45074;52.764;6.896;2022-11-06T06:30:01;9.07;;;3.55;;
59302;SDS011;45074;52.764;6.896;2022-11-06T06:32:27;9.65;;;3.38;;
59302;SDS011;45074;52.764;6.896;2022-11-06T06:34:53;9.10;;;3.33;;
59302;SDS011;45074;52.764;6.896;2022-11-06T06:37:19;8.00;;;3.28;;
59302;SDS011;45074;52.764;6.896;2022-11-06T06:39:45;7.85;;;3.45;;
59302;SDS011;45074;52.764;6.896;2022-11-06T06:42:11;10.30;;;3.30;;
59302;SDS011;45074;52.764;6.896;2022-11-06T06:44:37;12.52;;;3.40;;
59302;SDS011;45074;52.764;6.896;2022-11-06T06:47:03;9.10;;;3.50;;
59302;SDS011;45074;52.764;6.896;2022-11-06T06:49:32;9.70;;;3.70;;
59302;SDS011;45074;52.764;6.896;2022-11-06T06:51:59;9.25;;;3.25;;
59302;SDS011;45074;52.764;6.896;2022-11-06T06:54:25;10.57;;;3.55;;
59302;SDS011;45074;52.764;6.896;2022-11-06T06:56:51;9.63;;;3.72;;
59302;SDS011;45074;52.764;6.896;2022-11-06T06:59:17;17.27;;;8.07;;
59302;SDS011;45074;52.764;6.896;2022-11-06T07:01:43;15.80;;;11.32;;
59302;SDS011;45074;52.764;6.896;2022-11-06T07:04:10;13.90;;;8.00;;
59302;SDS011;45074;52.764;6.896;2022-11-06T07:06:36;8.45;;;3.28;;
59302;SDS011;45074;52.764;6.896;2022-11-06T07:09:02;9.20;;;3.67;;
59302;SDS011;45074;52.764;6.896;2022-11-06T07:11:28;6.65;;;2.90;;
59302;SDS011;45074;52.764;6.896;2022-11-06T07:13:54;8.77;;;3.45;;
59302;SDS011;45074;52.764;6.896;2022-11-06T07:16:20;10.70;;;4.53;;
59302;SDS011;45074;52.764;6.896;2022-11-06T07:18:46;14.15;;;5.60;;
59302;SDS011;45074;52.764;6.896;2022-11-06T07:21:12;11.35;;;4.00;;
59302;SDS011;45074;52.764;6.896;2022-11-06T07:23:38;18.38;;;8.25;;
59302;SDS011;45074;52.764;6.896;2022-11-06T07:26:04;11.13;;;4.75;;
59302;SDS011;45074;52.764;6.896;2022-11-06T07:28:31;9.07;;;3.75;;
59302;SDS011;45074;52.764;6.896;2022-11-06T07:30:57;9.02;;;3.88;;
59302;SDS011;45074;52.764;6.896;2022-11-06T07:33:24;7.93;;;3.10;;
59302;SDS011;45074;52.764;6.896;2022-11-06T07:35:50;8.23;;;3.40;;
59302;SDS011;45074;52.764;6.896;2022-11-06T07:38:16;15.82;;;8.70;;
59302;SDS011;45074;52.764;6.896;2022-11-06T07:40:42;13.07;;;5.35;;
59302;SDS011;45074;52.764;6.896;2022-11-06T07:43:09;14.77;;;8.10;;
59302;SDS011;45074;52.764;6.896;2022-11-06T07:45:35;12.25;;;6.00;;
59302;SDS011;45074;52.764;6.896;2022-11-06T07:48:03;11.77;;;4.65;;
59302;SDS011;45074;52.764;6.896;2022-11-06T07:50:30;9.88;;;4.38;;
59302;SDS011;45074;52.764;6.896;2022-11-06T07:52:56;11.25;;;4.85;;
59302;SDS011;45074;52.764;6.896;2022-11-06T07:55:22;15.65;;;8.98;;
59302;SDS011;45074;52.764;6.896;2022-11-06T07:57:48;8.75;;;3.13;;
59302;SDS011;45074;52.764;6.896;2022-11-06T08:00:14;11.52;;;4.65;;
59302;SDS011;45074;52.764;6.896;2022-11-06T08:02:40;8.65;;;3.22;;
59302;SDS011;45074;52.764;6.896;2022-11-06T08:05:06;9.30;;;4.00;;
59302;SDS011;45074;52.764;6.896;2022-11-06T08:07:33;7.32;;;3.20;;
59302;SDS011;45074;52.764;6.896;2022-11-06T08:09:59;8.80;;;3.30;;
59302;SDS011;45074;52.764;6.896;2022-11-06T08:12:25;6.88;;;2.70;;
59302;SDS011;45074;52.764;6.896;2022-11-06T08:14:51;9.05;;;3.55;;
59302;SDS011;45074;52.764;6.896;2022-11-06T08:17:17;8.27;;;2.97;;
59302;SDS011;45074;52.764;6.896;2022-11-06T08:19:43;7.57;;;2.80;;
59302;SDS011;45074;52.764;6.896;2022-11-06T08:22:09;7.00;;;2.80;;
59302;SDS011;45074;52.764;6.896;2022-11-06T08:24:35;8.70;;;2.80;;
59302;SDS011;45074;52.764;6.896;2022-11-06T08:27:01;7.18;;;2.85;;
59302;SDS011;45074;52.764;6.896;2022-11-06T08:29:27;8.68;;;2.60;;
59302;SDS011;45074;52.764;6.896;2022-11-06T08:31:53;7.00;;;2.75;;
59302;SDS011;45074;52.764;6.896;2022-11-06T08:34:19;7.95;;;2.78;;
59302;SDS011;45074;52.764;6.896;2022-11-06T08:36:45;8.05;;;2.65;;
59302;SDS011;45074;52.764;6.896;2022-11-06T08:39:14;9.32;;;2.63;;
59302;SDS011;45074;52.764;6.896;2022-11-06T08:41:40;8.73;;;2.97;;
59302;SDS011;45074;52.764;6.896;2022-11-06T08:44:06;9.15;;;2.97;;
59302;SDS011;45074;52.764;6.896;2022-11-06T08:46:32;7.75;;;2.67;;
59302;SDS011;45074;52.764;6.896;2022-11-06T08:48:58;6.55;;;2.60;;
59302;SDS011;45074;52.764;6.896;2022-11-06T08:51:24;7.22;;;2.67;;
59302;SDS011;45074;52.764;6.896;2022-11-06T08:53:50;7.45;;;2.85;;
59302;SDS011;45074;52.764;6.896;2022-11-06T08:56:17;8.45;;;2.70;;
59302;SDS011;45074;52.764;6.896;2022-11-06T08:58:43;6.65;;;2.75;;
59302;SDS011;45074;52.764;6.896;2022-11-06T09:01:09;8.98;;;2.67;;
59302;SDS011;45074;52.764;6.896;2022-11-06T09:03:35;7.88;;;2.85;;
59302;SDS011;45074;52.764;6.896;2022-11-06T09:06:02;5.35;;;2.13;;
59302;SDS011;45074;52.764;6.896;2022-11-06T09:08:30;6.95;;;2.70;;
59302;SDS011;45074;52.764;6.896;2022-11-06T09:10:56;7.72;;;2.80;;
59302;SDS011;45074;52.764;6.896;2022-11-06T09:13:23;8.82;;;2.88;;
59302;SDS011;45074;52.764;6.896;2022-11-06T09:15:49;8.05;;;2.42;;
59302;SDS011;45074;52.764;6.896;2022-11-06T09:18:15;7.25;;;2.80;;
59302;SDS011;45074;52.764;6.896;2022-11-06T09:20:41;7.60;;;2.90;;
59302;SDS011;45074;52.764;6.896;2022-11-06T09:23:07;8.35;;;3.10;;
59302;SDS011;45074;52.764;6.896;2022-11-06T09:25:33;6.65;;;2.90;;
59302;SDS011;45074;52.764;6.896;2022-11-06T09:28:00;8.15;;;2.92;;
59302;SDS011;45074;52.764;6.896;2022-11-06T09:30:30;10.35;;;3.33;;
59302;SDS011;45074;52.764;6.896;2022-11-06T09:32:57;11.00;;;3.00;;
59302;SDS011;45074;52.764;6.896;2022-11-06T09:35:24;6.70;;;2.80;;
59302;SDS011;45074;52.764;6.896;2022-11-06T09:37:51;9.02;;;3.15;;
59302;SDS011;45074;52.764;6.896;2022-11-06T09:40:36;11.30;;;3.83;;
59302;SDS011;45074;52.764;6.896;2022-11-06T09:46:21;9.15;;;3.67;;
59302;SDS011;45074;52.764;6.896;2022-11-06T09:49:11;7.45;;;2.97;;
59302;SDS011;45074;52.764;6.896;2022-11-06T09:52:10;8.98;;;3.00;;
59302;SDS011;45074;52.764;6.896;2022-11-06T09:54:53;9.52;;;2.83;;
59302;SDS011;45074;52.764;6.896;2022-11-06T09:57:27;7.28;;;2.53;;
59302;SDS011;45074;52.764;6.896;2022-11-06T09:59:59;7.20;;;2.63;;
59302;SDS011;45074;52.764;6.896;2022-11-06T10:02:29;7.47;;;2.78;;
59302;SDS011;45074;52.764;6.896;2022-11-06T10:07:35;6.72;;;2.63;;
59302;SDS011;45074;52.764;6.896;2022-11-06T10:10:04;6.97;;;2.40;;
59302;SDS011;45074;52.764;6.896;2022-11-06T10:15:41;5.90;;;2.50;;
59302;SDS011;45074;52.764;6.896;2022-11-06T10:21:06;9.80;;;4.07;;
59302;SDS011;45074;52.764;6.896;2022-11-06T10:23:47;9.35;;;3.40;;
59302;SDS011;45074;52.764;6.896;2022-11-06T10:26:17;8.25;;;3.25;;
59302;SDS011;45074;52.764;6.896;2022-11-06T10:37:03;8.85;;;2.90;;
59302;SDS011;45074;52.764;6.896;2022-11-06T10:39:33;8.32;;;3.00;;
59302;SDS011;45074;52.764;6.896;2022-11-06T10:44:51;9.90;;;2.80;;
59302;SDS011;45074;52.764;6.896;2022-11-06T10:47:23;9.57;;;3.72;;
59302;SDS011;45074;52.764;6.896;2022-11-06T10:49:57;9.55;;;3.67;;
59302;SDS011;45074;52.764;6.896;2022-11-06T10:54:56;8.18;;;2.65;;
59302;SDS011;45074;52.764;6.896;2022-11-06T11:00:10;7.30;;;3.05;;
59302;SDS011;45074;52.764;6.896;2022-11-06T11:05:41;7.97;;;2.45;;
59302;SDS011;45074;52.764;6.896;2022-11-06T11:10:57;7.65;;;2.08;;
59302;SDS011;45074;52.764;6.896;2022-11-06T11:13:40;6.30;;;2.50;;
59302;SDS011;45074;52.764;6.896;2022-11-06T11:16:14;5.80;;;2.00;;
59302;SDS011;45074;52.764;6.896;2022-11-06T11:18:48;12.18;;;3.67;;
59302;SDS011;45074;52.764;6.896;2022-11-06T11:24:03;6.93;;;1.85;;
59302;SDS011;45074;52.764;6.896;2022-11-06T11:26:37;11.20;;;3.35;;
59302;SDS011;45074;52.764;6.896;2022-11-06T11:29:26;7.43;;;2.40;;
59302;SDS011;45074;52.764;6.896;2022-11-06T11:31:55;7.20;;;2.47;;
59302;SDS011;45074;52.764;6.896;2022-11-06T11:34:25;6.28;;;2.40;;
59302;SDS011;45074;52.764;6.896;2022-11-06T11:37:00;6.47;;;1.85;;
59302;SDS011;45074;52.764;6.896;2022-11-06T11:39:31;6.68;;;2.17;;
59302;SDS011;45074;52.764;6.896;2022-11-06T11:42:21;5.28;;;1.75;;
59302;SDS011;45074;52.764;6.896;2022-11-06T11:45:03;5.43;;;1.90;;
59302;SDS011;45074;52.764;6.896;2022-11-06T11:47:36;6.78;;;2.20;;
59302;SDS011;45074;52.764;6.896;2022-11-06T11:52:44;6.13;;;1.90;;
59302;SDS011;45074;52.764;6.896;2022-11-06T11:55:15;6.65;;;1.98;;
59302;SDS011;45074;52.764;6.896;2022-11-06T11:57:43;6.63;;;2.00;;
59302;SDS011;45074;52.764;6.896;2022-11-06T12:00:22;7.05;;;1.90;;
59302;SDS011;45074;52.764;6.896;2022-11-06T12:02:49;7.10;;;2.30;;
59302;SDS011;45074;52.764;6.896;2022-11-06T12:05:23;6.40;;;1.90;;
59302;SDS011;45074;52.764;6.896;2022-11-06T12:07:54;5.75;;;1.75;;
59302;SDS011;45074;52.764;6.896;2022-11-06T12:10:25;6.25;;;1.75;;
59302;SDS011;45074;52.764;6.896;2022-11-06T12:13:00;5.75;;;2.20;;
59302;SDS011;45074;52.764;6.896;2022-11-06T12:16:01;5.10;;;1.85;;
59302;SDS011;45074;52.764;6.896;2022-11-06T12:18:30;7.10;;;2.10;;
59302;SDS011;45074;52.764;6.896;2022-11-06T12:23:45;5.65;;;1.58;;
59302;SDS011;45074;52.764;6.896;2022-11-06T12:34:57;4.57;;;1.85;;
59302;SDS011;45074;52.764;6.896;2022-11-06T12:37:37;5.95;;;1.60;;
59302;SDS011;45074;52.764;6.896;2022-11-06T12:40:19;7.45;;;2.30;;
59302;SDS011;45074;52.764;6.896;2022-11-06T12:42:57;5.57;;;1.70;;
59302;SDS011;45074;52.764;6.896;2022-11-06T12:49:02;7.15;;;1.98;;
59302;SDS011;45074;52.764;6.896;2022-11-06T13:11:22;6.30;;;2.25;;
59302;SDS011;45074;52.764;6.896;2022-11-06T13:14:04;7.82;;;2.13;;
59302;SDS011;45074;52.764;6.896;2022-11-06T13:22:27;5.57;;;1.67;;
59302;SDS011;45074;52.764;6.896;2022-11-06T13:25:13;5.82;;;2.28;;
59302;SDS011;45074;52.764;6.896;2022-11-06T13:27:50;6.95;;;2.30;;
59302;SDS011;45074;52.764;6.896;2022-11-06T13:30:23;7.55;;;2.08;;
59302;SDS011;45074;52.764;6.896;2022-11-06T13:35:16;6.63;;;1.65;;
59302;SDS011;45074;52.764;6.896;2022-11-06T13:37:46;3.60;;;1.50;;
59302;SDS011;45074;52.764;6.896;2022-11-06T13:40:15;6.80;;;2.10;;
59302;SDS011;45074;52.764;6.896;2022-11-06T13:42:57;6.60;;;1.75;;
59302;SDS011;45074;52.764;6.896;2022-11-06T13:45:26;8.65;;;2.17;;
59302;SDS011;45074;52.764;6.896;2022-11-06T13:48:04;10.85;;;4.40;;
59302;SDS011;45074;52.764;6.896;2022-11-06T13:53:42;6.40;;;2.83;;
59302;SDS011;45074;52.764;6.896;2022-11-06T13:56:42;5.22;;;1.73;;
59302;SDS011;45074;52.764;6.896;2022-11-06T13:59:48;11.75;;;4.03;;
59302;SDS011;45074;52.764;6.896;2022-11-06T14:02:28;8.13;;;2.67;;
59302;SDS011;45074;52.764;6.896;2022-11-06T14:07:31;6.03;;;2.33;;
59302;SDS011;45074;52.764;6.896;2022-11-06T14:09:59;5.45;;;1.80;;
59302;SDS011;45074;52.764;6.896;2022-11-06T14:12:25;6.32;;;2.10;;
59302;SDS011;45074;52.764;6.896;2022-11-06T14:14:52;6.90;;;2.22;;
59302;SDS011;45074;52.764;6.896;2022-11-06T14:17:39;6.35;;;2.00;;
59302;SDS011;45074;52.764;6.896;2022-11-06T14:20:25;6.15;;;2.10;;
59302;SDS011;45074;52.764;6.896;2022-11-06T14:26:06;7.03;;;2.40;;
59302;SDS011;45074;52.764;6.896;2022-11-06T14:28:40;7.05;;;2.60;;
59302;SDS011;45074;52.764;6.896;2022-11-06T14:31:07;10.40;;;3.45;;
59302;SDS011;45074;52.764;6.896;2022-11-06T14:36:17;5.63;;;2.33;;
59302;SDS011;45074;52.764;6.896;2022-11-06T14:38:51;10.15;;;2.55;;
59302;SDS011;45074;52.764;6.896;2022-11-06T14:43:58;5.70;;;1.98;;
59302;SDS011;45074;52.764;6.896;2022-11-06T14:46:28;8.45;;;2.75;;
59302;SDS011;45074;52.764;6.896;2022-11-06T14:48:56;6.38;;;2.00;;
59302;SDS011;45074;52.764;6.896;2022-11-06T14:51:34;5.68;;;2.20;;
59302;SDS011;45074;52.764;6.896;2022-11-06T14:54:02;6.75;;;2.40;;
59302;SDS011;45074;52.764;6.896;2022-11-06T14:56:47;6.55;;;2.40;;
59302;SDS011;45074;52.764;6.896;2022-11-06T14:59:33;6.20;;;2.03;;
59302;SDS011;45074;52.764;6.896;2022-11-06T15:04:50;7.57;;;2.88;;
59302;SDS011;45074;52.764;6.896;2022-11-06T15:09:50;14.35;;;4.05;;
59302;SDS011;45074;52.764;6.896;2022-11-06T15:12:16;10.88;;;3.65;;
59302;SDS011;45074;52.764;6.896;2022-11-06T15:17:12;10.88;;;3.80;;
59302;SDS011;45074;52.764;6.896;2022-11-06T15:19:43;7.57;;;2.75;;
59302;SDS011;45074;52.764;6.896;2022-11-06T15:27:58;7.93;;;2.92;;
59302;SDS011;45074;52.764;6.896;2022-11-06T15:30:28;7.88;;;2.60;;
59302;SDS011;45074;52.764;6.896;2022-11-06T15:32:58;7.75;;;2.58;;
59302;SDS011;45074;52.764;6.896;2022-11-06T15:35:29;8.27;;;2.50;;
59302;SDS011;45074;52.764;6.896;2022-11-06T15:38:06;6.93;;;2.40;;
59302;SDS011;45074;52.764;6.896;2022-11-06T15:40:37;7.65;;;2.45;;
59302;SDS011;45074;52.764;6.896;2022-11-06T15:43:50;8.10;;;2.47;;
59302;SDS011;45074;52.764;6.896;2022-11-06T15:46:46;7.13;;;2.30;;
59302;SDS011;45074;52.764;6.896;2022-11-06T15:49:05;9.02;;;3.70;;
59302;SDS011;45074;52.764;6.896;2022-11-06T15:51:32;9.23;;;3.28;;
59302;SDS011;45074;52.764;6.896;2022-11-06T15:54:02;11.05;;;4.55;;
59302;SDS011;45074;52.764;6.896;2022-11-06T15:56:29;7.40;;;3.10;;
59302;SDS011;45074;52.764;6.896;2022-11-06T15:59:31;8.40;;;3.00;;
59302;SDS011;45074;52.764;6.896;2022-11-06T16:01:50;8.15;;;2.83;;
59302;SDS011;45074;52.764;6.896;2022-11-06T16:04:23;6.97;;;2.50;;
59302;SDS011;45074;52.764;6.896;2022-11-06T16:06:52;8.05;;;3.78;;
59302;SDS011;45074;52.764;6.896;2022-11-06T16:09:20;8.88;;;3.30;;
59302;SDS011;45074;52.764;6.896;2022-11-06T16:11:49;7.38;;;2.80;;
59302;SDS011;45074;52.764;6.896;2022-11-06T16:14:16;8.65;;;3.10;;
59302;SDS011;45074;52.764;6.896;2022-11-06T16:16:43;6.55;;;2.70;;
59302;SDS011;45074;52.764;6.896;2022-11-06T16:19:16;8.13;;;2.95;;
59302;SDS011;45074;52.764;6.896;2022-11-06T16:22:00;10.05;;;3.78;;
59302;SDS011;45074;52.764;6.896;2022-11-06T16:24:37;8.57;;;3.65;;
59302;SDS011;45074;52.764;6.896;2022-11-06T16:27:15;8.70;;;3.58;;
59302;SDS011;45074;52.764;6.896;2022-11-06T16:29:48;8.60;;;3.17;;
59302;SDS011;45074;52.764;6.896;2022-11-06T16:32:23;6.50;;;2.70;;
59302;SDS011;45074;52.764;6.896;2022-11-06T16:34:51;9.60;;;3.50;;
59302;SDS011;45074;52.764;6.896;2022-11-06T16:39:51;6.30;;;2.90;;
59302;SDS011;45074;52.764;6.896;2022-11-06T16:44:47;6.03;;;2.13;;
59302;SDS011;45074;52.764;6.896;2022-11-06T16:47:24;6.25;;;2.50;;
59302;SDS011;45074;52.764;6.896;2022-11-06T16:49:53;13.07;;;5.25;;
59302;SDS011;45074;52.764;6.896;2022-11-06T16:52:23;5.38;;;2.40;;
59302;SDS011;45074;52.764;6.896;2022-11-06T16:54:54;5.15;;;2.10;;
59302;SDS011;45074;52.764;6.896;2022-11-06T16:57:25;6.30;;;2.75;;
59302;SDS011;45074;52.764;6.896;2022-11-06T16:59:54;4.80;;;2.22;;
59302;SDS011;45074;52.764;6.896;2022-11-06T17:02:27;8.48;;;2.33;;
59302;SDS011;45074;52.764;6.896;2022-11-06T17:05:09;5.78;;;2.40;;
59302;SDS011;45074;52.764;6.896;2022-11-06T17:07:37;5.75;;;2.47;;
59302;SDS011;45074;52.764;6.896;2022-11-06T17:10:23;6.15;;;2.47;;
59302;SDS011;45074;52.764;6.896;2022-11-06T17:12:59;8.23;;;2.60;;
59302;SDS011;45074;52.764;6.896;2022-11-06T17:15:52;8.63;;;3.90;;
59302;SDS011;45074;52.764;6.896;2022-11-06T17:18:30;7.78;;;3.13;;
59302;SDS011;45074;52.764;6.896;2022-11-06T17:21:01;7.50;;;2.78;;
59302;SDS011;45074;52.764;6.896;2022-11-06T17:23:29;7.50;;;2.63;;
59302;SDS011;45074;52.764;6.896;2022-11-06T17:25:56;7.93;;;3.60;;
59302;SDS011;45074;52.764;6.896;2022-11-06T17:28:30;6.00;;;2.53;;
59302;SDS011;45074;52.764;6.896;2022-11-06T17:30:56;7.60;;;3.25;;
59302;SDS011;45074;52.764;6.896;2022-11-06T17:33:22;10.30;;;3.33;;